createdAt,value
2018-02-21T00:00:07.071Z,100.0
2018-02-21T00:01:08.744Z,100.0
2018-02-21T00:02:10.274Z,100.0
2018-02-21T00:03:11.745Z,100.0
2018-02-21T00:04:13.278Z,100.0
2018-02-21T00:05:14.848Z,100.0
2018-02-21T00:06:16.338Z,100.0
2018-02-21T00:07:17.871Z,100.0
2018-02-21T00:08:19.325Z,100.0
2018-02-21T00:09:20.776Z,100.0
2018-02-21T00:10:22.277Z,100.0
2018-02-21T00:11:23.765Z,100.0
2018-02-21T00:12:25.290Z,100.0
2018-02-21T00:13:26.799Z,100.0
2018-02-21T00:14:28.438Z,100.0
2018-02-21T00:15:29.964Z,100.0
2018-02-21T00:16:31.505Z,100.0
2018-02-21T00:17:32.998Z,100.0
2018-02-21T00:18:34.539Z,100.0
2018-02-21T00:19:36.167Z,100.0
2018-02-21T00:20:37.698Z,100.0
2018-02-21T00:21:39.242Z,100.0
2018-02-21T00:22:40.787Z,100.0
2018-02-21T00:23:42.332Z,100.0
2018-02-21T00:24:44.063Z,100.0
2018-02-21T00:25:45.538Z,100.0
2018-02-21T00:26:47.085Z,100.0
2018-02-21T00:27:48.629Z,100.0
2018-02-21T00:28:50.126Z,100.0
2018-02-21T00:29:51.663Z,100.0
2018-02-21T00:30:53.201Z,100.0
2018-02-21T00:31:54.725Z,100.0
2018-02-21T00:32:56.251Z,100.0
2018-02-21T00:33:57.749Z,100.0
2018-02-21T00:34:59.281Z,100.0
2018-02-21T00:36:00.792Z,100.0
2018-02-21T00:37:02.337Z,100.0
2018-02-21T00:38:03.857Z,100.0
2018-02-21T00:39:05.368Z,100.0
2018-02-21T00:40:06.901Z,100.0
2018-02-21T00:41:08.412Z,100.0
2018-02-21T00:42:09.951Z,100.0
2018-02-21T00:43:11.449Z,100.0
2018-02-21T00:44:13.032Z,100.0
2018-02-21T00:45:14.546Z,100.0
2018-02-21T00:46:16.071Z,100.0
2018-02-21T00:47:17.606Z,100.0
2018-02-21T00:48:19.161Z,100.0
2018-02-21T00:49:20.670Z,100.0
2018-02-21T00:50:22.159Z,100.0
2018-02-21T00:51:23.721Z,100.0
2018-02-21T00:52:25.246Z,100.0
2018-02-21T00:53:26.763Z,100.0
2018-02-21T00:54:28.273Z,100.0
2018-02-21T00:55:29.784Z,100.0
2018-02-21T00:56:31.277Z,100.0
2018-02-21T00:57:32.796Z,100.0
2018-02-21T00:58:34.330Z,100.0
2018-02-21T00:59:35.842Z,100.0
2018-02-21T01:00:37.375Z,100.0
2018-02-21T01:01:38.911Z,100.0
2018-02-21T01:02:40.490Z,100.0
2018-02-21T01:03:42.051Z,100.0
2018-02-21T01:04:43.614Z,100.0
2018-02-21T01:05:45.264Z,100.0
2018-02-21T01:06:46.744Z,100.0
2018-02-21T01:07:48.234Z,100.0
2018-02-21T01:08:49.748Z,100.0
2018-02-21T01:09:51.207Z,100.0
2018-02-21T01:10:52.704Z,100.0
2018-02-21T01:11:54.254Z,100.0
2018-02-21T01:12:55.773Z,100.0
2018-02-21T01:13:57.271Z,100.0
2018-02-21T01:14:58.743Z,100.0
2018-02-21T01:16:00.294Z,100.0
2018-02-21T01:17:01.806Z,100.0
2018-02-21T01:18:03.359Z,100.0
2018-02-21T01:19:05.013Z,100.0
2018-02-21T01:20:06.570Z,100.0
2018-02-21T01:21:08.083Z,100.0
2018-02-21T01:22:09.561Z,100.0
2018-02-21T01:23:11.160Z,100.0
2018-02-21T01:24:12.666Z,100.0
2018-02-21T01:25:14.159Z,100.0
2018-02-21T01:26:15.702Z,100.0
2018-02-21T01:27:17.381Z,100.0
2018-02-21T01:28:19.081Z,100.0
2018-02-21T01:29:20.551Z,100.0
2018-02-21T01:30:22.027Z,100.0
2018-02-21T01:31:23.611Z,100.0
2018-02-21T01:32:25.126Z,100.0
2018-02-21T01:33:26.631Z,100.0
2018-02-21T01:34:28.191Z,100.0
2018-02-21T01:35:29.701Z,100.0
2018-02-21T01:36:31.232Z,100.0
2018-02-21T01:37:32.829Z,100.0
2018-02-21T01:38:34.335Z,100.0
2018-02-21T01:39:35.798Z,100.0
2018-02-21T01:40:37.343Z,100.0
2018-02-21T01:41:38.908Z,100.0
2018-02-21T01:42:40.413Z,100.0
2018-02-21T01:43:41.900Z,100.0
2018-02-21T01:44:43.465Z,100.0
2018-02-21T01:45:44.979Z,100.0
2018-02-21T01:46:46.499Z,100.0
2018-02-21T01:47:48.024Z,100.0
2018-02-21T01:48:49.527Z,100.0
2018-02-21T01:49:50.997Z,100.0
2018-02-21T01:50:52.493Z,100.0
2018-02-21T01:51:54.039Z,100.0
2018-02-21T01:52:55.556Z,100.0
2018-02-21T01:53:57.073Z,100.0
2018-02-21T01:54:58.523Z,100.0
2018-02-21T01:55:59.978Z,100.0
2018-02-21T01:57:01.473Z,100.0
2018-02-21T01:58:02.985Z,100.0
2018-02-21T01:59:04.459Z,100.0
2018-02-21T02:00:05.981Z,100.0
2018-02-21T02:01:07.486Z,100.0
2018-02-21T02:02:08.988Z,100.0
2018-02-21T02:03:10.504Z,100.0
2018-02-21T02:04:12.062Z,100.0
2018-02-21T02:05:13.563Z,100.0
2018-02-21T02:06:15.102Z,100.0
2018-02-21T02:07:16.625Z,100.0
2018-02-21T02:08:18.124Z,100.0
2018-02-21T02:09:19.697Z,100.0
2018-02-21T02:10:21.241Z,100.0
2018-02-21T02:11:22.816Z,100.0
2018-02-21T02:12:24.376Z,100.0
2018-02-21T02:13:25.943Z,100.0
2018-02-21T02:14:27.472Z,100.0
2018-02-21T02:15:28.989Z,100.0
2018-02-21T02:16:30.477Z,100.0
2018-02-21T02:17:32.144Z,100.0
2018-02-21T02:18:33.664Z,100.0
2018-02-21T02:19:35.163Z,100.0
2018-02-21T02:20:36.703Z,100.0
2018-02-21T02:21:38.216Z,100.0
2018-02-21T02:22:39.735Z,100.0
2018-02-21T02:23:41.217Z,100.0
2018-02-21T02:24:42.746Z,100.0
2018-02-21T02:25:44.294Z,100.0
2018-02-21T02:26:45.851Z,100.0
2018-02-21T02:27:47.433Z,100.0
2018-02-21T02:28:48.945Z,100.0
2018-02-21T02:29:50.500Z,100.0
2018-02-21T02:30:52.512Z,100.0
2018-02-21T02:31:54.051Z,100.0
2018-02-21T02:32:55.609Z,100.0
2018-02-21T02:33:57.123Z,100.0
2018-02-21T02:34:58.670Z,100.0
2018-02-21T02:36:00.227Z,100.0
2018-02-21T02:37:01.689Z,100.0
2018-02-21T02:38:03.185Z,100.0
2018-02-21T02:39:04.703Z,100.0
2018-02-21T02:40:06.250Z,100.0
2018-02-21T02:41:07.746Z,100.0
2018-02-21T02:42:09.263Z,100.0
2018-02-21T02:43:10.801Z,100.0
2018-02-21T02:44:12.303Z,100.0
2018-02-21T02:45:13.811Z,100.0
2018-02-21T02:46:15.342Z,100.0
2018-02-21T02:47:16.838Z,100.0
2018-02-21T02:48:18.336Z,100.0
2018-02-21T02:49:19.851Z,100.0
2018-02-21T02:50:21.336Z,100.0
2018-02-21T02:51:22.828Z,100.0
2018-02-21T02:52:24.390Z,100.0
2018-02-21T02:53:25.952Z,100.0
2018-02-21T02:54:27.423Z,100.0
2018-02-21T02:55:28.923Z,100.0
2018-02-21T02:56:30.387Z,100.0
2018-02-21T02:57:31.878Z,100.0
2018-02-21T02:58:33.399Z,100.0
2018-02-21T02:59:34.880Z,100.0
2018-02-21T03:00:36.452Z,100.0
2018-02-21T03:01:37.971Z,100.0
2018-02-21T03:02:39.480Z,100.0
2018-02-21T03:03:41.041Z,100.0
2018-02-21T03:04:42.596Z,100.0
2018-02-21T03:05:44.121Z,100.0
2018-02-21T03:06:45.688Z,100.0
2018-02-21T03:07:47.284Z,100.0
2018-02-21T03:08:48.811Z,100.0
2018-02-21T03:09:50.340Z,100.0
2018-02-21T03:10:51.906Z,100.0
2018-02-21T03:11:53.510Z,100.0
2018-02-21T03:12:54.986Z,100.0
2018-02-21T03:13:56.491Z,100.0
2018-02-21T03:14:57.975Z,100.0
2018-02-21T03:15:59.536Z,100.0
2018-02-21T03:17:01.041Z,100.0
2018-02-21T03:18:02.556Z,100.0
2018-02-21T03:19:04.143Z,100.0
2018-02-21T03:20:05.681Z,100.0
2018-02-21T03:21:07.182Z,100.0
2018-02-21T03:22:08.721Z,100.0
2018-02-21T03:23:10.234Z,100.0
2018-02-21T03:24:11.754Z,100.0
2018-02-21T03:25:13.251Z,100.0
2018-02-21T03:26:14.704Z,100.0
2018-02-21T03:27:16.207Z,100.0
2018-02-21T03:28:17.700Z,100.0
2018-02-21T03:29:19.222Z,100.0
2018-02-21T03:30:20.758Z,100.0
2018-02-21T03:31:22.373Z,100.0
2018-02-21T03:32:23.892Z,100.0
2018-02-21T03:33:25.491Z,100.0
2018-02-21T03:34:27.011Z,100.0
2018-02-21T03:35:28.470Z,100.0
2018-02-21T03:36:29.976Z,100.0
2018-02-21T03:37:31.466Z,100.0
2018-02-21T03:38:32.989Z,100.0
2018-02-21T03:39:34.592Z,100.0
2018-02-21T03:40:36.105Z,100.0
2018-02-21T03:41:37.584Z,100.0
2018-02-21T03:42:39.120Z,100.0
2018-02-21T03:43:40.620Z,100.0
2018-02-21T03:44:42.148Z,100.0
2018-02-21T03:45:43.627Z,100.0
2018-02-21T03:46:45.239Z,100.0
2018-02-21T03:47:46.730Z,100.0
2018-02-21T03:48:48.277Z,100.0
2018-02-21T03:49:49.819Z,100.0
2018-02-21T03:50:51.366Z,100.0
2018-02-21T03:51:52.903Z,100.0
2018-02-21T03:52:54.444Z,100.0
2018-02-21T03:53:55.929Z,100.0
2018-02-21T03:54:57.442Z,100.0
2018-02-21T03:55:58.951Z,100.0
2018-02-21T03:57:00.457Z,100.0
2018-02-21T03:58:01.952Z,100.0
2018-02-21T03:59:03.511Z,100.0
2018-02-21T04:00:04.991Z,100.0
2018-02-21T04:01:06.500Z,100.0
2018-02-21T04:02:08.041Z,100.0
2018-02-21T04:03:09.544Z,100.0
2018-02-21T04:04:11.070Z,100.0
2018-02-21T04:05:12.528Z,100.0
2018-02-21T04:06:13.980Z,100.0
2018-02-21T04:07:15.517Z,100.0
2018-02-21T04:08:17.034Z,100.0
2018-02-21T04:09:18.551Z,100.0
2018-02-21T04:10:20.128Z,100.0
2018-02-21T04:11:21.652Z,100.0
2018-02-21T04:12:23.221Z,100.0
2018-02-21T04:13:24.744Z,100.0
2018-02-21T04:14:26.276Z,100.0
2018-02-21T04:15:27.818Z,100.0
2018-02-21T04:16:29.363Z,100.0
2018-02-21T04:17:30.876Z,100.0
2018-02-21T04:18:32.379Z,100.0
2018-02-21T04:19:33.882Z,100.0
2018-02-21T04:20:35.389Z,100.0
2018-02-21T04:21:36.884Z,100.0
2018-02-21T04:22:38.386Z,100.0
2018-02-21T04:23:39.935Z,100.0
2018-02-21T04:24:41.452Z,100.0
2018-02-21T04:25:42.944Z,100.0
2018-02-21T04:26:44.455Z,100.0
2018-02-21T04:27:45.995Z,100.0
2018-02-21T04:28:47.497Z,100.0
2018-02-21T04:29:48.954Z,100.0
2018-02-21T04:30:50.504Z,100.0
2018-02-21T04:31:52.025Z,100.0
2018-02-21T04:32:53.540Z,100.0
2018-02-21T04:33:55.077Z,100.0
2018-02-21T04:34:56.593Z,100.0
2018-02-21T04:35:58.114Z,100.0
2018-02-21T04:36:59.698Z,100.0
2018-02-21T04:38:01.138Z,100.0
2018-02-21T04:39:02.699Z,100.0
2018-02-21T04:40:04.236Z,100.0
2018-02-21T04:41:05.782Z,100.0
2018-02-21T04:42:07.338Z,100.0
2018-02-21T04:43:08.812Z,100.0
2018-02-21T04:44:10.351Z,100.0
2018-02-21T04:45:11.907Z,100.0
2018-02-21T04:46:13.438Z,100.0
2018-02-21T04:47:14.995Z,100.0
2018-02-21T04:48:16.521Z,100.0
2018-02-21T04:49:18.049Z,100.0
2018-02-21T04:50:19.627Z,100.0
2018-02-21T04:51:21.096Z,100.0
2018-02-21T04:52:22.622Z,100.0
2018-02-21T04:53:24.108Z,100.0
2018-02-21T04:54:25.582Z,100.0
2018-02-21T04:55:27.079Z,100.0
2018-02-21T04:56:28.618Z,100.0
2018-02-21T04:57:30.143Z,100.0
2018-02-21T04:58:31.605Z,100.0
2018-02-21T04:59:33.103Z,100.0
2018-02-21T05:00:34.644Z,100.0
2018-02-21T05:01:36.158Z,100.0
2018-02-21T05:02:37.729Z,100.0
2018-02-21T05:03:39.313Z,100.0
2018-02-21T05:04:40.816Z,100.0
2018-02-21T05:05:42.307Z,100.0
2018-02-21T05:06:43.837Z,100.0
2018-02-21T05:07:45.325Z,100.0
2018-02-21T05:08:46.830Z,100.0
2018-02-21T05:09:48.326Z,100.0
2018-02-21T05:10:49.816Z,100.0
2018-02-21T05:11:51.337Z,100.0
2018-02-21T05:12:52.831Z,100.0
2018-02-21T05:13:54.307Z,100.0
2018-02-21T05:14:55.854Z,100.0
2018-02-21T05:15:57.356Z,100.0
2018-02-21T05:16:58.877Z,100.0
2018-02-21T05:18:00.390Z,100.0
2018-02-21T05:19:01.909Z,100.0
2018-02-21T05:20:03.424Z,100.0
2018-02-21T05:21:04.954Z,100.0
2018-02-21T05:22:06.455Z,100.0
2018-02-21T05:23:07.956Z,100.0
2018-02-21T05:24:09.486Z,100.0
2018-02-21T05:25:11.027Z,100.0
2018-02-21T05:26:12.528Z,100.0
2018-02-21T05:27:14.031Z,100.0
2018-02-21T05:28:15.530Z,100.0
2018-02-21T05:29:17.076Z,100.0
2018-02-21T05:30:18.658Z,100.0
2018-02-21T05:31:20.194Z,100.0
2018-02-21T05:32:21.694Z,100.0
2018-02-21T05:33:23.234Z,100.0
2018-02-21T05:34:24.720Z,100.0
2018-02-21T05:35:26.249Z,100.0
2018-02-21T05:36:27.706Z,100.0
2018-02-21T05:37:29.283Z,100.0
2018-02-21T05:38:30.808Z,100.0
2018-02-21T05:39:32.684Z,100.0
2018-02-21T05:40:34.216Z,100.0
2018-02-21T05:41:35.756Z,100.0
2018-02-21T05:42:37.259Z,100.0
2018-02-21T05:43:38.963Z,100.0
2018-02-21T05:44:40.471Z,100.0
2018-02-21T05:45:42.009Z,100.0
2018-02-21T05:46:43.599Z,100.0
2018-02-21T05:47:45.186Z,100.0
2018-02-21T05:48:46.725Z,100.0
2018-02-21T05:49:48.245Z,100.0
2018-02-21T05:50:49.742Z,100.0
2018-02-21T05:51:51.253Z,100.0
2018-02-21T05:52:52.822Z,100.0
2018-02-21T05:53:54.337Z,100.0
2018-02-21T05:54:55.894Z,100.0
2018-02-21T05:55:57.404Z,100.0
2018-02-21T05:56:58.917Z,100.0
2018-02-21T05:58:00.450Z,100.0
2018-02-21T05:59:01.951Z,100.0
2018-02-21T06:00:03.504Z,100.0
2018-02-21T06:01:05.050Z,100.0
2018-02-21T06:02:07.073Z,100.0
2018-02-21T06:03:08.609Z,100.0
2018-02-21T06:04:10.134Z,100.0
2018-02-21T06:05:11.661Z,100.0
2018-02-21T06:06:13.186Z,100.0
2018-02-21T06:07:14.675Z,100.0
2018-02-21T06:08:16.194Z,100.0
2018-02-21T06:09:17.666Z,100.0
2018-02-21T06:10:19.181Z,100.0
2018-02-21T06:11:20.677Z,100.0
2018-02-21T06:12:22.209Z,100.0
2018-02-21T06:13:23.724Z,100.0
2018-02-21T06:14:25.261Z,100.0
2018-02-21T06:15:26.769Z,100.0
2018-02-21T06:16:28.289Z,100.0
2018-02-21T06:17:29.796Z,100.0
2018-02-21T06:18:31.797Z,100.0
2018-02-21T06:19:34.166Z,100.0
2018-02-21T06:20:36.917Z,100.0
2018-02-21T06:21:38.524Z,100.0
2018-02-21T06:22:40.138Z,100.0
2018-02-21T06:23:42.093Z,100.0
2018-02-21T06:24:44.350Z,100.0
2018-02-21T06:25:46.382Z,100.0
2018-02-21T06:26:47.859Z,100.0
2018-02-21T06:27:49.457Z,100.0
2018-02-21T06:28:50.996Z,100.0
2018-02-21T06:29:52.544Z,100.0
2018-02-21T06:30:54.083Z,100.0
2018-02-21T06:31:55.644Z,100.0
2018-02-21T06:32:57.189Z,100.0
2018-02-21T06:33:58.736Z,100.0
2018-02-21T06:35:00.283Z,100.0
2018-02-21T06:36:01.825Z,100.0
2018-02-21T06:37:03.371Z,100.0
2018-02-21T06:38:04.892Z,100.0
2018-02-21T06:39:06.467Z,100.0
2018-02-21T06:40:08.014Z,100.0
2018-02-21T06:41:09.563Z,100.0
2018-02-21T06:42:11.112Z,100.0
2018-02-21T06:43:12.637Z,100.0
2018-02-21T06:44:14.212Z,100.0
2018-02-21T06:45:15.704Z,100.0
2018-02-21T06:46:17.343Z,100.0
2018-02-21T06:47:19.054Z,100.0
2018-02-21T06:48:20.587Z,100.0
2018-02-21T06:49:22.303Z,100.0
2018-02-21T06:50:23.896Z,100.0
2018-02-21T06:51:25.559Z,100.0
2018-02-21T06:52:27.074Z,100.0
2018-02-21T06:53:28.584Z,100.0
2018-02-21T06:54:30.047Z,100.0
2018-02-21T06:55:31.572Z,100.0
2018-02-21T06:56:33.028Z,100.0
2018-02-21T06:57:34.601Z,100.0
2018-02-21T06:58:36.133Z,100.0
2018-02-21T06:59:37.656Z,100.0
2018-02-21T07:00:39.240Z,100.0
2018-02-21T07:01:40.814Z,100.0
2018-02-21T07:02:42.322Z,100.0
2018-02-21T07:03:43.907Z,100.0
2018-02-21T07:04:45.515Z,100.0
2018-02-21T07:05:47.014Z,100.0
2018-02-21T07:06:48.619Z,100.0
2018-02-21T07:07:50.159Z,100.0
2018-02-21T07:08:51.756Z,100.0
2018-02-21T07:09:53.283Z,100.0
2018-02-21T07:10:54.904Z,100.0
2018-02-21T07:11:56.490Z,100.0
2018-02-21T07:12:58.019Z,100.0
2018-02-21T07:13:59.524Z,100.0
2018-02-21T07:15:01.024Z,100.0
2018-02-21T07:16:41.892Z,100.0
2018-02-21T07:18:22.775Z,100.0
2018-02-21T07:20:03.657Z,100.0
2018-02-21T07:21:05.056Z,100.0
2018-02-21T07:22:45.945Z,100.0
2018-02-21T07:24:26.846Z,100.0
2018-02-21T07:26:07.733Z,100.0
2018-02-21T07:27:48.618Z,100.0
2018-02-21T07:29:29.529Z,100.0
2018-02-21T07:31:10.426Z,100.0
2018-02-21T07:32:51.332Z,100.0
2018-02-21T07:34:32.225Z,100.0
2018-02-21T07:36:13.136Z,100.0
2018-02-21T07:37:54.058Z,100.0
2018-02-21T07:38:55.505Z,100.0
2018-02-21T07:39:56.918Z,100.0
2018-02-21T07:40:58.355Z,100.0
2018-02-21T07:41:59.820Z,100.0
2018-02-21T07:43:01.235Z,100.0
2018-02-21T07:44:02.645Z,100.0
2018-02-21T07:45:04.076Z,100.0
2018-02-21T07:46:05.485Z,100.0
2018-02-21T07:47:06.892Z,100.0
2018-02-21T07:48:08.302Z,100.0
2018-02-21T07:49:09.707Z,100.0
2018-02-21T07:50:11.146Z,100.0
2018-02-21T07:51:12.561Z,100.0
2018-02-21T07:52:13.978Z,100.0
2018-02-21T07:53:15.416Z,100.0
2018-02-21T07:54:16.837Z,100.0
2018-02-21T07:55:18.227Z,100.0
2018-02-21T07:56:19.647Z,100.0
2018-02-21T07:57:21.121Z,100.0
2018-02-21T07:58:22.489Z,100.0
2018-02-21T07:59:23.904Z,100.0
2018-02-21T08:00:25.321Z,100.0
2018-02-21T08:01:26.728Z,100.0
2018-02-21T08:02:28.159Z,100.0
2018-02-21T08:03:29.576Z,100.0
2018-02-21T08:04:31.033Z,100.0
2018-02-21T08:05:32.448Z,100.0
2018-02-21T08:06:33.922Z,100.0
2018-02-21T08:07:35.323Z,100.0
2018-02-21T08:08:36.727Z,100.0
2018-02-21T08:09:38.160Z,100.0
2018-02-21T08:10:39.584Z,100.0
2018-02-21T08:11:41.039Z,98.9
2018-02-21T08:12:42.473Z,97.0
2018-02-21T08:13:43.952Z,95.9
2018-02-21T08:14:45.372Z,96.5
2018-02-21T08:15:47.505Z,96.2
2018-02-21T08:16:49.933Z,95.1
2018-02-21T08:17:51.417Z,94.8
2018-02-21T08:18:56.171Z,94.6
2018-02-21T08:19:57.751Z,95.4
2018-02-21T08:20:59.253Z,95.4
2018-02-21T08:22:00.812Z,94.6
2018-02-21T08:23:02.318Z,93.8
2018-02-21T08:24:03.817Z,93.4
2018-02-21T08:25:05.476Z,92.7
2018-02-21T08:26:07.017Z,92.0
2018-02-21T08:27:08.553Z,91.8
2018-02-21T08:28:10.437Z,92.4
2018-02-21T08:29:11.921Z,92.3
2018-02-21T08:30:13.446Z,91.7
2018-02-21T08:31:14.983Z,90.8
2018-02-21T08:32:16.513Z,90.6
2018-02-21T08:33:18.008Z,90.7
2018-02-21T08:34:19.503Z,90.6
2018-02-21T08:35:21.025Z,91.2
2018-02-21T08:36:22.506Z,91.3
2018-02-21T08:37:24.759Z,90.8
2018-02-21T08:38:26.254Z,90.5
2018-02-21T08:39:27.770Z,90.7
2018-02-21T08:40:29.269Z,92.0
2018-02-21T08:41:30.742Z,93.0
2018-02-21T08:42:32.177Z,93.0
2018-02-21T08:43:34.535Z,93.1
2018-02-21T08:44:35.999Z,93.2
2018-02-21T08:45:37.583Z,92.9
2018-02-21T08:46:39.084Z,92.5
2018-02-21T08:47:47.456Z,92.6
2018-02-21T08:48:48.947Z,92.6
2018-02-21T08:49:50.767Z,91.7
2018-02-21T08:50:52.257Z,91.9
2018-02-21T08:51:53.857Z,92.8
2018-02-21T08:52:55.343Z,92.7
2018-02-21T08:53:57.038Z,92.3
2018-02-21T08:54:58.543Z,92.6
2018-02-21T08:56:00.085Z,92.9
2018-02-21T08:57:01.596Z,93.2
2018-02-21T08:58:03.114Z,92.9
2018-02-21T08:59:04.600Z,92.9
2018-02-21T09:00:06.074Z,92.5
2018-02-21T09:01:07.510Z,92.8
2018-02-21T09:02:08.930Z,92.6
2018-02-21T09:03:10.346Z,92.7
2018-02-21T09:04:12.625Z,93.1
2018-02-21T09:05:14.203Z,93.1
2018-02-21T09:06:15.795Z,92.9
2018-02-21T09:07:17.307Z,92.9
2018-02-21T09:08:18.777Z,93.0
2018-02-21T09:09:20.432Z,93.2
2018-02-21T09:10:22.129Z,92.9
2018-02-21T09:11:23.592Z,93.0
2018-02-21T09:12:25.104Z,93.4
2018-02-21T09:13:26.564Z,92.9
2018-02-21T09:14:28.148Z,92.9
2018-02-21T09:15:29.684Z,93.2
2018-02-21T09:16:31.163Z,93.0
2018-02-21T09:17:32.823Z,93.1
2018-02-21T09:18:34.346Z,93.0
2018-02-21T09:19:35.811Z,93.5
2018-02-21T09:20:37.333Z,94.1
2018-02-21T09:21:38.845Z,94.6
2018-02-21T09:22:40.474Z,95.5
2018-02-21T09:23:44.044Z,95.9
2018-02-21T09:24:45.498Z,95.4
2018-02-21T09:25:47.017Z,96.4
2018-02-21T09:26:48.870Z,96.7
2018-02-21T09:27:50.463Z,96.6
2018-02-21T09:28:52.012Z,97.0
2018-02-21T09:29:53.496Z,96.7
2018-02-21T09:30:55.038Z,97.5
2018-02-21T09:31:56.565Z,97.6
2018-02-21T09:32:58.151Z,97.6
2018-02-21T09:33:59.655Z,96.8
2018-02-21T09:35:01.190Z,96.6
2018-02-21T09:36:02.717Z,95.1
2018-02-21T09:37:04.409Z,93.8
2018-02-21T09:38:06.534Z,92.6
2018-02-21T09:39:08.145Z,92.8
2018-02-21T09:40:09.932Z,92.6
2018-02-21T09:41:11.599Z,92.9
2018-02-21T09:42:13.148Z,91.8
2018-02-21T09:43:14.660Z,91.0
2018-02-21T09:44:16.295Z,90.3
2018-02-21T09:45:17.833Z,90.7
2018-02-21T09:46:19.288Z,90.5
2018-02-21T09:47:20.845Z,89.6
2018-02-21T09:48:22.584Z,89.4
2018-02-21T09:49:24.437Z,89.0
2018-02-21T09:50:26.334Z,88.1
2018-02-21T09:51:27.907Z,86.6
2018-02-21T09:52:29.387Z,85.1
2018-02-21T09:53:30.964Z,83.2
2018-02-21T09:54:32.459Z,81.4
2018-02-21T09:55:33.974Z,79.7
2018-02-21T09:56:35.530Z,77.6
2018-02-21T09:57:37.175Z,76.7
2018-02-21T09:58:38.786Z,76.4
2018-02-21T09:59:40.288Z,76.9
2018-02-21T10:00:41.775Z,76.2
2018-02-21T10:01:43.314Z,73.8
2018-02-21T10:02:45.002Z,73.7
2018-02-21T10:03:46.832Z,72.6
2018-02-21T10:04:48.337Z,70.8
2018-02-21T10:05:49.828Z,69.2
2018-02-21T10:06:51.366Z,67.1
2018-02-21T10:07:52.932Z,65.2
2018-02-21T10:08:54.833Z,63.6
2018-02-21T10:09:56.352Z,61.5
2018-02-21T10:10:57.871Z,60.6
2018-02-21T10:11:59.372Z,59.2
2018-02-21T10:13:00.894Z,58.2
2018-02-21T10:14:02.414Z,57.4
2018-02-21T10:15:03.952Z,57.2
2018-02-21T10:16:05.451Z,57.2
2018-02-21T10:17:06.983Z,56.9
2018-02-21T10:18:08.545Z,55.8
2018-02-21T10:19:10.236Z,54.1
2018-02-21T10:20:11.776Z,53.8
2018-02-21T10:21:13.271Z,53.8
2018-02-21T10:22:14.832Z,53.0
2018-02-21T10:23:16.386Z,51.1
2018-02-21T10:24:17.885Z,51.6
2018-02-21T10:25:19.442Z,52.4
2018-02-21T10:26:21.505Z,52.8
2018-02-21T10:27:23.056Z,51.7
2018-02-21T10:28:24.632Z,50.3
2018-02-21T10:29:26.177Z,48.6
2018-02-21T10:30:27.685Z,47.4
2018-02-21T10:31:29.453Z,47.0
2018-02-21T10:32:30.934Z,45.7
2018-02-21T10:33:32.438Z,44.8
2018-02-21T10:34:33.942Z,44.7
2018-02-21T10:35:35.465Z,47.1
2018-02-21T10:36:37.006Z,47.1
2018-02-21T10:37:38.598Z,45.5
2018-02-21T10:38:40.127Z,44.7
2018-02-21T10:39:41.618Z,42.6
2018-02-21T10:40:43.252Z,42.0
2018-02-21T10:41:44.770Z,40.8
2018-02-21T10:42:46.306Z,40.7
2018-02-21T10:43:48.547Z,40.1
2018-02-21T10:44:50.061Z,39.7
2018-02-21T10:45:51.645Z,38.8
2018-02-21T10:46:53.201Z,38.5
2018-02-21T10:47:54.780Z,38.5
2018-02-21T10:48:56.364Z,37.9
2018-02-21T10:49:57.983Z,38.5
2018-02-21T10:50:59.564Z,38.0
2018-02-21T10:52:01.158Z,38.0
2018-02-21T10:53:02.670Z,37.6
2018-02-21T10:54:04.237Z,38.3
2018-02-21T10:55:05.788Z,40.3
2018-02-21T10:56:07.355Z,39.7
2018-02-21T10:57:08.885Z,39.7
2018-02-21T10:58:10.403Z,40.3
2018-02-21T10:59:11.914Z,40.0
2018-02-21T11:00:13.453Z,41.7
2018-02-21T11:01:15.013Z,45.1
2018-02-21T11:02:16.547Z,47.4
2018-02-21T11:03:18.096Z,49.8
2018-02-21T11:04:19.667Z,51.7
2018-02-21T11:05:21.184Z,51.9
2018-02-21T11:06:22.717Z,52.3
2018-02-21T11:07:24.265Z,51.2
2018-02-21T11:08:25.813Z,48.0
2018-02-21T11:09:27.260Z,45.9
2018-02-21T11:10:28.755Z,43.2
2018-02-21T11:11:30.225Z,40.4
2018-02-21T11:12:31.720Z,38.9
2018-02-21T11:13:33.323Z,37.2
2018-02-21T11:14:34.854Z,38.7
2018-02-21T11:15:36.335Z,38.5
2018-02-21T11:16:37.902Z,36.8
2018-02-21T11:17:39.442Z,36.6
2018-02-21T11:18:41.005Z,37.0
2018-02-21T11:19:42.538Z,37.1
2018-02-21T11:20:44.129Z,36.9
2018-02-21T11:21:45.723Z,37.0
2018-02-21T11:22:47.291Z,36.9
2018-02-21T11:23:48.785Z,36.7
2018-02-21T11:24:50.336Z,35.1
2018-02-21T11:25:51.831Z,33.2
2018-02-21T11:26:53.406Z,32.7
2018-02-21T11:27:54.930Z,31.9
2018-02-21T11:28:56.497Z,31.5
2018-02-21T11:29:58.018Z,30.3
2018-02-21T11:30:59.540Z,30.3
2018-02-21T11:32:01.035Z,30.2
2018-02-21T11:33:02.489Z,32.7
2018-02-21T11:34:03.973Z,35.7
2018-02-21T11:35:05.472Z,40.7
2018-02-21T11:36:06.970Z,41.9
2018-02-21T11:37:08.489Z,41.1
2018-02-21T11:38:09.986Z,42.2
2018-02-21T11:39:11.422Z,42.4
2018-02-21T11:40:12.937Z,42.1
2018-02-21T11:41:14.542Z,39.5
2018-02-21T11:42:16.100Z,38.1
2018-02-21T11:43:17.831Z,38.3
2018-02-21T11:44:19.315Z,39.8
2018-02-21T11:45:20.871Z,39.1
2018-02-21T11:46:22.386Z,37.8
2018-02-21T11:47:23.921Z,37.1
2018-02-21T11:48:26.326Z,35.6
2018-02-21T11:49:27.818Z,36.1
2018-02-21T11:50:29.279Z,35.2
2018-02-21T11:51:30.791Z,34.8
2018-02-21T11:52:32.335Z,34.7
2018-02-21T11:53:33.900Z,36.0
2018-02-21T11:54:35.404Z,34.4
2018-02-21T11:55:36.945Z,32.5
2018-02-21T11:56:38.413Z,31.0
2018-02-21T11:57:39.983Z,29.8
2018-02-21T11:58:41.526Z,28.4
2018-02-21T11:59:43.116Z,28.6
2018-02-21T12:00:44.632Z,28.3
2018-02-21T12:01:46.108Z,29.5
2018-02-21T12:02:47.588Z,32.2
2018-02-21T12:03:49.051Z,33.3
2018-02-21T12:04:50.514Z,32.2
2018-02-21T12:05:51.935Z,32.0
2018-02-21T12:06:53.377Z,32.0
2018-02-21T12:07:54.834Z,31.1
2018-02-21T12:08:56.253Z,29.8
2018-02-21T12:09:57.684Z,31.3
2018-02-21T12:10:59.107Z,33.0
2018-02-21T12:12:00.532Z,33.3
2018-02-21T12:13:02.699Z,34.8
2018-02-21T12:14:04.179Z,34.6
2018-02-21T12:15:05.933Z,34.2
2018-02-21T12:16:07.480Z,34.1
2018-02-21T12:17:09.056Z,34.3
2018-02-21T12:18:10.496Z,34.1
2018-02-21T12:19:11.924Z,33.1
2018-02-21T12:20:13.355Z,35.3
2018-02-21T12:21:19.595Z,38.2
2018-02-21T12:22:24.050Z,42.9
2018-02-21T12:23:25.627Z,46.5
2018-02-21T12:24:27.515Z,46.6
2018-02-21T12:25:29.018Z,47.6
2018-02-21T12:26:30.479Z,48.1
2018-02-21T12:27:31.918Z,48.3
2018-02-21T12:28:33.373Z,45.9
2018-02-21T12:29:34.814Z,43.0
2018-02-21T12:30:36.248Z,41.0
2018-02-21T12:31:37.688Z,40.3
2018-02-21T12:32:39.121Z,43.3
2018-02-21T12:33:40.552Z,46.2
2018-02-21T12:34:41.997Z,49.7
2018-02-21T12:35:43.444Z,52.9
2018-02-21T12:36:44.909Z,54.3
2018-02-21T12:37:46.538Z,56.1
2018-02-21T12:38:48.072Z,58.7
2018-02-21T12:39:49.633Z,60.9
2018-02-21T12:40:51.103Z,62.5
2018-02-21T12:41:52.584Z,63.2
2018-02-21T12:42:54.039Z,62.4
2018-02-21T12:43:55.542Z,62.6
2018-02-21T12:44:56.994Z,62.3
2018-02-21T12:45:58.528Z,62.8
2018-02-21T12:47:00.030Z,63.2
2018-02-21T12:48:01.533Z,62.4
2018-02-21T12:49:03.583Z,62.2
2018-02-21T12:50:05.079Z,62.3
2018-02-21T12:51:06.620Z,63.5
2018-02-21T12:52:08.130Z,63.8
2018-02-21T12:53:09.620Z,63.9
2018-02-21T12:54:11.036Z,64.3
2018-02-21T12:55:12.600Z,64.3
2018-02-21T12:56:14.163Z,64.1
2018-02-21T12:57:15.660Z,63.4
2018-02-21T12:58:18.017Z,62.5
2018-02-21T12:59:19.379Z,59.2
2018-02-21T13:00:20.788Z,57.2
2018-02-21T13:01:22.282Z,55.4
2018-02-21T13:02:23.800Z,53.5
2018-02-21T13:03:25.303Z,50.9
2018-02-21T13:04:26.839Z,50.2
2018-02-21T13:05:28.405Z,50.7
2018-02-21T13:06:29.943Z,51.8
2018-02-21T13:07:31.404Z,53.6
2018-02-21T13:08:32.941Z,54.7
2018-02-21T13:09:34.385Z,54.2
2018-02-21T13:10:35.952Z,52.1
2018-02-21T13:11:37.408Z,48.9
2018-02-21T13:12:38.866Z,44.7
2018-02-21T13:13:40.339Z,41.6
2018-02-21T13:14:41.806Z,40.3
2018-02-21T13:15:43.349Z,39.4
2018-02-21T13:16:44.869Z,39.8
2018-02-21T13:17:46.439Z,40.1
2018-02-21T13:18:48.020Z,39.7
2018-02-21T13:19:49.550Z,40.2
2018-02-21T13:20:51.030Z,40.3
2018-02-21T13:21:52.575Z,39.8
2018-02-21T13:22:54.041Z,39.7
2018-02-21T13:23:55.554Z,40.2
2018-02-21T13:24:57.055Z,40.3
2018-02-21T13:25:58.584Z,40.5
2018-02-21T13:27:00.023Z,40.3
2018-02-21T13:28:01.538Z,39.6
2018-02-21T13:29:03.026Z,39.9
2018-02-21T13:30:04.482Z,39.6
2018-02-21T13:31:06.023Z,38.6